< < Back
Terminal Aerodrome Forecast


Current Version              Previous Versions:   1  2  3  4  5  6  7  8  9  

Terminal Aerodrome Forecast

055
FTUS42 KILM 290743 AAA
TAFFLO
TAF AMD
KFLO 290743Z 2908/3006 03007KT P6SM VCSH SCT015 BKN070
      TEMPO 2908/2910 4SM -SHRA BKN008
     FM291000 03009KT 6SM BR VCSH BKN008 OVC015
     FM291300 08008KT 6SM -SHRA BKN015
     FM291700 08008KT 6SM -SHRA BKN025
     FM300000 02004KT 6SM -SHRA SCT006 BKN015=

Latest METAR

886
SAUS70 KWBC 291500 RRF
MTRFLO
METAR KFLO 291453Z 03013KT 10SM BKN013 BKN019 BKN060 26/22 A3000 RMK AO2
SLP156 P0001 60005 T02610222 58004


USA.gov is the U.S. government's official web portal to all federal, state and local government web resources and services.